Time;durP1;ratioP1;P1;durP2;ratioP2;P2;SDS_P1;SDS_P2;PMS_P1;PMS_P2;Temp;Humidity;BMP_temperature;BMP_pressure;BME280_temperature;BME280_humidity;BME280_pressure;Samples;Min_cycle;Max_cycle;Signal;HPM_P1;HPM_P2
2021/12/16 00:35:48;;;;;;;7.25;4.07;;;12.50;66.60;;;;;;20799119;28;20048;-75
2021/12/16 00:46:13;;;;;;;5.67;3.40;;;12.50;66.60;;;;;;20888057;28;20037;-75
2021/12/16 00:56:15;;;;;;;6.60;4.20;;;12.50;66.60;;;;;;20906971;28;20033;-76
2021/12/16 01:06:39;;;;;;;9.57;4.30;;;12.50;66.60;;;;;;20887400;28;20045;-75
2021/12/16 01:58:12;;;;;;;8.35;3.88;;;12.50;66.70;;;;;;20902958;28;20083;-75
2021/12/16 02:08:25;;;;;;;8.70;4.18;;;12.50;66.70;;;;;;20896455;28;20041;-75
2021/12/16 02:39:21;;;;;;;6.93;3.75;;;12.50;66.70;;;;;;20918616;28;20028;-76
2021/12/16 02:49:22;;;;;;;;;;;12.50;66.70;;;;;;20897348;28;20048;-75
2021/12/16 02:59:27;;;;;;;6.22;3.17;;;12.50;66.70;;;;;;20912511;28;20024;-75
2021/12/16 03:10:02;;;;;;;4.75;3.33;;;12.50;66.60;;;;;;20912883;28;20376;-76
2021/12/16 03:20:09;;;;;;;4.90;3.17;;;12.50;66.70;;;;;;20897321;28;20040;-76
2021/12/16 03:31:33;;;;;;;5.65;3.50;;;12.50;66.70;;;;;;20910116;28;20052;-75
2021/12/16 03:41:04;;;;;;;5.97;3.58;;;12.40;66.80;;;;;;20896627;28;20037;-75
2021/12/16 03:51:09;;;;;;;7.78;3.90;;;12.40;66.70;;;;;;20892399;28;20083;-75
2021/12/16 04:01:19;;;;;;;4.53;3.05;;;12.50;66.80;;;;;;20907741;28;20598;-75
2021/12/16 04:11:31;;;;;;;6.10;3.70;;;12.40;66.80;;;;;;20890028;28;20098;-75
2021/12/16 04:21:43;;;;;;;7.35;3.38;;;12.40;66.80;;;;;;20891113;28;20082;-75
2021/12/16 04:31:44;;;;;;;7.82;4.15;;;12.40;66.90;;;;;;20904803;28;20552;-76
2021/12/16 04:41:46;;;;;;;7.53;3.20;;;12.40;66.90;;;;;;20889943;28;20456;-75
2021/12/16 04:51:49;;;;;;;6.65;3.63;;;12.40;66.90;;;;;;20887819;28;20132;-75
2021/12/16 05:01:52;;;;;;;6.75;3.95;;;12.40;67.00;;;;;;20903969;28;20629;-74
2021/12/16 05:12:05;;;;;;;7.10;3.92;;;12.40;67.00;;;;;;20888378;28;20039;-76
2021/12/16 05:32:25;;;;;;;7.38;4.45;;;13.40;64.90;;;;;;20890610;28;20041;-72
2021/12/16 05:42:26;;;;;;;9.13;4.68;;;14.10;63.00;;;;;;20896808;28;20075;-78
2021/12/16 05:52:27;;;;;;;7.63;4.20;;;14.70;61.10;;;;;;20902686;28;20102;-74
2021/12/16 06:02:28;;;;;;;9.15;4.88;;;15.10;59.60;;;;;;20935728;28;20425;-73
2021/12/16 06:12:29;;;;;;;8.52;4.68;;;15.30;58.90;;;;;;20915704;28;20035;-74
2021/12/16 06:32:40;;;;;;;9.85;5.60;;;15.20;58.90;;;;;;20849028;28;20065;-73
2021/12/16 06:42:41;;;;;;;9.85;5.15;;;14.70;59.70;;;;;;20852939;28;20071;-74
2021/12/16 06:52:48;;;;;;;9.93;5.20;;;14.20;60.90;;;;;;20949300;28;20045;-74
2021/12/16 07:02:58;;;;;;;11.57;5.20;;;13.80;62.00;;;;;;20827177;28;20060;-72
2021/12/16 07:13:06;;;;;;;11.38;5.78;;;13.50;63.00;;;;;;20892570;28;20143;-73
2021/12/16 07:23:07;;;;;;;11.77;5.20;;;13.20;63.80;;;;;;20846184;28;20479;-77
2021/12/16 07:33:08;;;;;;;8.43;5.68;;;13.10;64.60;;;;;;20868089;28;20686;-74
2021/12/16 07:53:09;;;;;;;8.43;5.15;;;12.80;65.70;;;;;;20890951;28;20037;-75
2021/12/16 08:03:11;;;;;;;11.80;6.30;;;12.80;66.00;;;;;;20824328;28;20029;-75
2021/12/16 08:13:13;;;;;;;13.85;6.60;;;12.80;66.20;;;;;;20834219;28;20306;-76
2021/12/16 08:23:14;;;;;;;9.38;5.60;;;12.80;66.50;;;;;;20864316;28;20044;-74
2021/12/16 08:33:15;;;;;;;10.75;7.10;;;12.80;66.60;;;;;;20810240;28;20120;-74
2021/12/16 08:43:18;;;;;;;14.75;6.88;;;12.80;66.70;;;;;;20805576;28;20122;-74
2021/12/16 08:53:20;;;;;;;13.00;6.72;;;12.80;66.90;;;;;;20819649;28;20038;-74
2021/12/16 09:03:21;;;;;;;13.73;7.43;;;12.80;67.00;;;;;;20887025;28;20893;-75
2021/12/16 09:13:21;;;;;;;14.27;6.85;;;12.80;67.00;;;;;;20891392;28;20095;-77
2021/12/16 09:23:22;;;;;;;11.73;6.83;;;12.80;67.10;;;;;;20904750;28;20044;-79
2021/12/16 09:33:25;;;;;;;9.90;5.28;;;12.80;67.20;;;;;;20866489;28;20342;-76
2021/12/16 09:43:30;;;;;;;9.98;6.63;;;12.80;67.40;;;;;;20851801;28;20037;-74
2021/12/16 09:53:32;;;;;;;9.50;5.90;;;12.80;67.40;;;;;;20818222;28;20045;-74
2021/12/16 10:03:32;;;;;;;10.05;5.10;;;12.80;67.40;;;;;;20851480;28;20056;-74
2021/12/16 10:13:44;;;;;;;10.18;5.90;;;12.70;67.40;;;;;;20898473;28;20136;-73
2021/12/16 10:23:45;;;;;;;9.45;5.63;;;12.80;67.60;;;;;;20881121;28;20546;-76
2021/12/16 10:34:08;;;;;;;10.07;5.38;;;12.70;67.60;;;;;;20867353;28;20707;-73
2021/12/16 10:44:19;;;;;;;7.65;4.90;;;12.80;67.80;;;;;;20887454;28;20029;-75
2021/12/16 10:54:24;;;;;;;9.80;5.07;;;12.70;67.70;;;;;;20798025;28;20395;-76
2021/12/16 11:04:30;;;;;;;11.65;4.75;;;12.80;67.70;;;;;;20889469;28;20120;-73
2021/12/16 11:14:31;;;;;;;6.47;3.97;;;12.80;67.60;;;;;;20900280;28;20041;-77
2021/12/16 11:24:31;;;;;;;7.50;4.55;;;13.20;66.80;;;;;;21205103;22;20373;-81
2021/12/16 11:34:32;;;;;;;7.65;3.75;;;13.80;65.10;;;;;;20816326;28;20075;-81
2021/12/16 11:44:40;;;;;;;4.95;2.92;;;14.40;63.50;;;;;;20813184;28;20034;-78
2021/12/16 11:54:53;;;;;;;4.82;2.92;;;14.80;61.80;;;;;;20812469;28;20033;-80
2021/12/16 12:05:11;;;;;;;6.22;3.70;;;15.20;60.70;;;;;;20845725;28;20029;-75
2021/12/16 12:15:14;;;;;;;5.30;2.97;;;15.20;60.20;;;;;;20781931;28;20147;-76
2021/12/16 12:25:15;;;;;;;5.53;2.65;;;15.00;60.30;;;;;;20823970;28;20116;-74
2021/12/16 12:35:19;;;;;;;5.65;2.40;;;14.60;61.30;;;;;;20791994;28;20056;-78
2021/12/16 12:45:26;;;;;;;4.47;2.38;;;14.10;62.40;;;;;;20827971;28;20061;-80
2021/12/16 12:55:31;;;;;;;;;;;13.70;63.30;;;;;;20816072;28;20044;-78
2021/12/16 13:05:32;;;;;;;4.88;2.20;;;13.50;64.10;;;;;;20827559;28;20510;-78
2021/12/16 13:26:15;;;;;;;2.83;1.67;;;13.20;65.50;;;;;;20827854;28;20081;-74
2021/12/16 13:36:26;;;;;;;3.45;1.50;;;13.00;65.90;;;;;;20807048;28;20439;-74
2021/12/16 13:46:41;;;;;;;3.92;1.77;;;13.00;66.30;;;;;;20818668;28;20037;-74
2021/12/16 14:38:16;;;;;;;3.28;1.25;;;13.00;66.60;;;;;;20841973;28;20034;-73
2021/12/16 14:58:22;;;;;;;2.63;1.38;;;13.00;66.50;;;;;;20796849;28;20041;-78
2021/12/16 15:08:43;;;;;;;3.45;1.80;;;13.00;66.50;;;;;;20790386;28;20038;-79
2021/12/16 15:49:35;;;;;;;2.85;1.20;;;13.00;66.50;;;;;;20801970;28;20630;-78
2021/12/16 15:59:37;;;;;;;2.05;1.00;;;13.40;65.50;;;;;;20816942;28;20043;-79
2021/12/16 16:09:46;;;;;;;4.05;1.10;;;13.90;64.20;;;;;;20811797;28;20543;-79
2021/12/16 16:19:48;;;;;;;3.03;0.88;;;14.40;62.70;;;;;;20814170;28;20133;-79
2021/12/16 16:29:50;;;;;;;3.40;1.70;;;14.80;61.50;;;;;;20830049;28;20167;-78
2021/12/16 16:39:53;;;;;;;3.08;1.35;;;14.90;60.80;;;;;;20801956;28;20057;-78
2021/12/16 16:49:57;;;;;;;2.15;1.00;;;14.60;61.00;;;;;;20825326;28;20060;-76
2021/12/16 17:00:18;;;;;;;2.58;1.30;;;14.30;61.90;;;;;;20743233;28;20096;-76
2021/12/16 17:10:32;;;;;;;3.28;1.17;;;13.90;62.80;;;;;;20767500;28;20042;-76
2021/12/16 17:20:32;;;;;;;1.73;1.23;;;13.60;63.50;;;;;;20793828;28;20091;-77
2021/12/16 17:30:35;;;;;;;3.28;1.80;;;13.40;64.20;;;;;;20811513;28;20046;-74
2021/12/16 17:40:50;;;;;;;10.48;2.65;;;13.20;64.70;;;;;;20837609;28;20084;-77
2021/12/16 17:51:00;;;;;;;3.97;2.05;;;13.00;65.80;;;;;;20840739;28;20045;-74
2021/12/16 18:01:06;;;;;;;2.97;1.65;;;12.90;65.50;;;;;;20823131;28;20098;-76
2021/12/16 18:11:20;;;;;;;3.60;2.00;;;12.90;65.80;;;;;;20809831;28;20128;-75
2021/12/16 18:21:44;;;;;;;3.63;1.70;;;12.80;66.00;;;;;;20745855;28;20121;-75
2021/12/16 18:31:46;;;;;;;1.98;1.50;;;12.80;66.10;;;;;;20818717;28;20041;-75
2021/12/16 18:41:57;;;;;;;3.92;1.77;;;12.80;66.10;;;;;;20817494;28;20029;-74
2021/12/16 18:52:12;;;;;;;3.30;1.67;;;12.80;66.10;;;;;;20816009;28;20037;-75
2021/12/16 19:02:15;;;;;;;4.38;2.58;;;12.80;66.00;;;;;;20818020;28;20398;-75
2021/12/16 19:12:19;;;;;;;3.67;2.00;;;12.80;66.00;;;;;;20815860;28;20479;-74
2021/12/16 19:22:21;;;;;;;3.80;2.28;;;12.80;65.90;;;;;;20815800;28;20411;-75
2021/12/16 19:32:22;;;;;;;5.53;2.25;;;12.80;65.80;;;;;;20831653;28;20124;-75
2021/12/16 19:42:22;;;;;;;4.10;2.40;;;12.80;65.80;;;;;;20814513;28;20041;-75
2021/12/16 19:52:23;;;;;;;4.18;2.70;;;12.80;65.80;;;;;;20814769;28;20042;-73
2021/12/16 20:02:27;;;;;;;6.88;2.53;;;12.80;65.80;;;;;;20830153;28;20124;-74
2021/12/16 20:12:29;;;;;;;6.55;2.58;;;12.80;65.80;;;;;;20830005;28;20037;-75
2021/12/16 20:22:31;;;;;;;5.03;2.70;;;12.80;65.80;;;;;;20812238;28;20109;-74
2021/12/16 20:32:34;;;;;;;3.92;2.55;;;12.80;65.80;;;;;;20828296;28;20041;-75
2021/12/16 20:42:37;;;;;;;3.85;2.72;;;12.80;65.80;;;;;;20811797;28;20076;-73
2021/12/16 20:52:38;;;;;;;4.53;2.30;;;12.70;65.80;;;;;;20810711;28;20038;-74
2021/12/16 21:02:39;;;;;;;4.78;2.50;;;12.80;65.90;;;;;;20879270;28;20159;-75
2021/12/16 21:12:39;;;;;;;4.40;2.70;;;12.70;65.80;;;;;;20860568;28;20029;-75
2021/12/16 21:22:40;;;;;;;3.92;2.42;;;12.70;65.80;;;;;;20843029;28;20041;-75
2021/12/16 21:32:41;;;;;;;4.57;2.45;;;12.70;65.80;;;;;;20808772;28;20046;-74
2021/12/16 21:42:43;;;;;;;4.25;2.53;;;12.70;66.40;;;;;;20842026;28;20037;-74
2021/12/16 21:52:43;;;;;;;4.13;2.50;;;12.70;65.70;;;;;;20839936;28;20111;-74
2021/12/16 22:02:46;;;;;;;7.15;2.90;;;12.70;65.70;;;;;;20841126;28;20065;-74
2021/12/16 22:12:46;;;;;;;4.45;3.30;;;12.60;65.50;;;;;;20839561;28;20488;-75
2021/12/16 22:22:47;;;;;;;4.13;2.47;;;12.70;65.60;;;;;;20822743;28;20143;-74
2021/12/16 22:32:48;;;;;;;4.43;3.00;;;12.70;65.60;;;;;;20837702;28;20129;-74
2021/12/16 22:42:51;;;;;;;5.00;2.63;;;12.60;65.50;;;;;;20836979;28;20029;-74
2021/12/16 22:52:52;;;;;;;3.45;2.17;;;12.70;65.60;;;;;;20820646;28;20115;-74
2021/12/16 23:02:52;;;;;;;5.28;3.10;;;12.60;65.50;;;;;;20835740;28;20045;-74
2021/12/16 23:12:55;;;;;;;3.57;2.30;;;12.60;65.40;;;;;;20819123;28;20037;-74
2021/12/16 23:22:56;;;;;;;3.47;2.20;;;12.60;65.40;;;;;;20834037;28;20816;-75
2021/12/16 23:32:56;;;;;;;3.22;2.60;;;12.60;65.40;;;;;;20832705;28;20037;-74
2021/12/16 23:53:18;;;;;;;3.40;2.38;;;12.60;65.30;;;;;;20833145;28;20299;-75
